createdAt,value
2018-03-25T00:01:45.676Z,5.90
2018-03-25T00:04:13.939Z,6.00
2018-03-25T00:06:42.235Z,5.90
2018-03-25T00:09:10.427Z,5.80
2018-03-25T00:11:39.477Z,5.80
2018-03-25T00:14:07.811Z,5.80
2018-03-25T00:16:36.821Z,5.80
2018-03-25T00:19:05.141Z,5.80
2018-03-25T00:21:33.371Z,5.80
2018-03-25T00:24:01.691Z,5.80
2018-03-25T00:26:29.918Z,5.90
2018-03-25T00:28:58.169Z,5.90
2018-03-25T00:31:27.209Z,5.70
2018-03-25T00:33:55.475Z,5.70
2018-03-25T00:39:08.123Z,5.60
2018-03-25T00:41:36.343Z,5.60
2018-03-25T00:44:05.363Z,5.70
2018-03-25T00:46:33.664Z,5.60
2018-03-25T00:49:01.943Z,5.70
2018-03-25T00:51:30.183Z,5.70
2018-03-25T00:53:58.440Z,5.60
2018-03-25T00:56:26.662Z,5.60
2018-03-25T00:58:55.014Z,5.60
2018-03-25T01:01:24.043Z,5.60
2018-03-25T01:03:52.269Z,5.60
2018-03-25T01:06:21.282Z,5.50
2018-03-25T01:08:49.517Z,5.40
2018-03-25T01:11:17.758Z,5.50
2018-03-25T01:13:46.008Z,5.50
2018-03-25T01:16:15.002Z,5.50
2018-03-25T01:18:43.354Z,5.40
2018-03-25T01:21:11.573Z,5.60
2018-03-25T01:23:39.838Z,5.50
2018-03-25T01:26:08.094Z,5.50
2018-03-25T01:28:36.343Z,5.50
2018-03-25T01:31:04.616Z,5.40
2018-03-25T01:33:33.651Z,5.30
2018-03-25T01:36:02.643Z,5.30
2018-03-25T01:38:31.762Z,5.30
2018-03-25T01:43:34.856Z,5.30
2018-03-25T01:46:03.068Z,5.40
2018-03-25T01:48:31.379Z,5.30
2018-03-25T01:50:59.743Z,5.30
2018-03-25T01:53:27.969Z,5.50
2018-03-25T01:55:56.211Z,5.60
2018-03-25T01:58:24.449Z,5.60
2018-03-25T02:00:52.705Z,5.60
2018-03-25T02:03:20.990Z,5.50
2018-03-25T02:05:49.221Z,5.50
2018-03-25T02:08:18.239Z,5.40
2018-03-25T02:10:46.474Z,5.30
2018-03-25T02:13:14.744Z,5.30
2018-03-25T02:15:43.045Z,5.20
2018-03-25T02:18:12.159Z,5.10
2018-03-25T02:20:40.366Z,5.10
2018-03-25T02:23:08.589Z,5.20
2018-03-25T02:25:36.834Z,5.20
2018-03-25T02:28:05.083Z,5.30
2018-03-25T02:30:33.349Z,5.40
2018-03-25T02:33:01.581Z,5.20
2018-03-25T02:35:29.831Z,5.30
2018-03-25T02:37:58.100Z,5.30
2018-03-25T02:40:26.332Z,5.30
2018-03-25T02:42:55.338Z,5.20
2018-03-25T02:45:23.590Z,5.20
2018-03-25T02:47:51.811Z,5.20
2018-03-25T02:50:20.086Z,5.20
2018-03-25T02:52:48.302Z,5.20
2018-03-25T02:55:16.570Z,5.30
2018-03-25T02:57:44.818Z,5.30
2018-03-25T03:00:13.053Z,5.20
2018-03-25T03:02:41.291Z,5.20
2018-03-25T03:05:09.525Z,5.20
2018-03-25T03:07:37.777Z,5.20
2018-03-25T03:10:06.034Z,5.20
2018-03-25T03:12:34.282Z,5.20
2018-03-25T03:15:02.528Z,5.10
2018-03-25T03:17:30.801Z,5.00
2018-03-25T03:19:59.807Z,5.20
2018-03-25T03:22:28.062Z,5.10
2018-03-25T03:24:57.051Z,5.20
2018-03-25T03:27:26.041Z,5.20
2018-03-25T03:29:55.082Z,5.00
2018-03-25T03:32:23.313Z,5.00
2018-03-25T03:34:52.337Z,4.90
2018-03-25T03:37:20.604Z,4.90
2018-03-25T03:39:48.848Z,4.90
2018-03-25T03:42:17.079Z,4.90
2018-03-25T03:44:45.343Z,4.90
2018-03-25T03:47:13.610Z,5.00
2018-03-25T03:49:41.869Z,5.00
2018-03-25T03:52:10.875Z,4.90
2018-03-25T03:54:39.886Z,4.90
2018-03-25T03:57:08.235Z,4.90
2018-03-25T03:59:37.245Z,4.90
2018-03-25T04:02:05.530Z,4.80
2018-03-25T04:04:33.769Z,4.70
2018-03-25T04:07:02.032Z,4.70
2018-03-25T04:09:30.275Z,4.80
2018-03-25T04:11:58.567Z,4.80
2018-03-25T04:14:26.802Z,4.80
2018-03-25T04:16:55.064Z,4.80
2018-03-25T04:19:24.063Z,4.80
2018-03-25T04:21:53.076Z,4.90
2018-03-25T04:24:21.352Z,4.80
2018-03-25T04:26:49.570Z,4.80
2018-03-25T04:29:17.848Z,4.90
2018-03-25T04:31:46.108Z,4.90
2018-03-25T04:34:14.330Z,4.90
2018-03-25T04:36:43.374Z,4.90
2018-03-25T04:39:11.599Z,4.90
2018-03-25T04:41:40.617Z,4.80
2018-03-25T04:44:09.700Z,4.70
2018-03-25T04:46:38.696Z,4.70
2018-03-25T04:49:06.948Z,4.70
2018-03-25T04:51:35.184Z,4.70
2018-03-25T04:54:03.472Z,4.80
2018-03-25T04:56:31.699Z,4.80
2018-03-25T04:59:00.897Z,4.90
2018-03-25T05:01:28.977Z,4.80
2018-03-25T05:03:57.247Z,4.80
2018-03-25T05:06:26.262Z,4.80
2018-03-25T05:08:54.487Z,4.80
2018-03-25T05:11:22.739Z,4.80
2018-03-25T05:13:50.992Z,4.80
2018-03-25T05:16:19.249Z,4.90
2018-03-25T05:18:47.481Z,4.80
2018-03-25T05:21:15.701Z,4.70
2018-03-25T05:23:44.006Z,4.70
2018-03-25T05:26:12.272Z,4.60
2018-03-25T05:28:41.270Z,4.50
2018-03-25T05:31:09.489Z,4.50
2018-03-25T05:33:37.753Z,4.50
2018-03-25T05:36:06.022Z,4.70
2018-03-25T05:38:34.243Z,4.80
2018-03-25T05:41:03.237Z,4.90
2018-03-25T05:43:32.250Z,4.90
2018-03-25T05:46:00.485Z,4.90
2018-03-25T05:48:28.739Z,4.90
2018-03-25T05:50:56.989Z,4.90
2018-03-25T05:53:25.236Z,4.80
2018-03-25T05:55:53.480Z,4.80
2018-03-25T05:58:21.753Z,4.90
2018-03-25T06:00:50.007Z,5.00
2018-03-25T06:03:18.255Z,5.00
2018-03-25T06:05:46.514Z,4.90
2018-03-25T06:08:15.542Z,4.80
2018-03-25T06:10:44.501Z,4.90
2018-03-25T06:13:13.647Z,5.00
2018-03-25T06:15:41.893Z,5.00
2018-03-25T06:18:10.134Z,5.00
2018-03-25T06:20:38.405Z,5.00
2018-03-25T06:23:06.641Z,5.10
2018-03-25T06:25:34.872Z,5.20
2018-03-25T06:28:03.894Z,5.20
2018-03-25T06:30:32.120Z,5.20
2018-03-25T06:33:00.359Z,5.30
2018-03-25T06:35:28.611Z,5.30
2018-03-25T06:37:56.952Z,5.30
2018-03-25T06:40:25.162Z,5.30
2018-03-25T06:42:53.392Z,5.30
2018-03-25T06:45:22.427Z,5.40
2018-03-25T06:47:51.429Z,5.40
2018-03-25T06:50:19.698Z,5.40
2018-03-25T06:52:47.988Z,5.40
2018-03-25T06:55:16.965Z,5.60
2018-03-25T06:57:45.983Z,5.70
2018-03-25T07:00:14.214Z,5.70
2018-03-25T07:02:42.499Z,5.80
2018-03-25T07:05:10.730Z,5.80
2018-03-25T07:07:38.968Z,5.90
2018-03-25T07:10:07.984Z,6.00
2018-03-25T07:12:36.202Z,5.90
2018-03-25T07:15:04.489Z,6.00
2018-03-25T07:17:32.706Z,6.10
2018-03-25T07:20:00.950Z,6.10
2018-03-25T07:22:29.971Z,6.20
2018-03-25T07:24:58.979Z,6.30
2018-03-25T07:27:27.206Z,6.20
2018-03-25T07:29:55.445Z,6.30
2018-03-25T07:32:23.687Z,6.40
2018-03-25T07:34:51.942Z,6.40
2018-03-25T07:37:20.181Z,6.50
2018-03-25T07:39:48.504Z,6.60
2018-03-25T07:42:17.482Z,6.60
2018-03-25T07:44:45.794Z,6.60
2018-03-25T07:47:14.149Z,6.60
2018-03-25T07:49:42.441Z,6.60
2018-03-25T07:52:11.606Z,6.80
2018-03-25T07:54:39.854Z,6.70
2018-03-25T07:57:08.095Z,6.80
2018-03-25T07:59:36.335Z,6.80
2018-03-25T08:02:04.567Z,6.90
2018-03-25T08:04:32.813Z,6.90
2018-03-25T08:07:01.064Z,7.00
2018-03-25T08:09:29.303Z,7.00
2018-03-25T08:11:57.542Z,7.10
2018-03-25T08:14:26.543Z,7.20
2018-03-25T08:16:54.769Z,7.20
2018-03-25T08:19:23.026Z,7.20
2018-03-25T08:21:51.246Z,7.30
2018-03-25T08:24:20.293Z,7.30
2018-03-25T08:26:48.597Z,7.30
2018-03-25T08:29:16.846Z,7.40
2018-03-25T08:31:45.137Z,7.40
2018-03-25T08:34:13.385Z,7.40
2018-03-25T08:36:41.627Z,7.50
2018-03-25T08:39:10.622Z,7.60
2018-03-25T08:41:39.642Z,7.60
2018-03-25T08:44:07.909Z,7.60
2018-03-25T08:46:36.943Z,7.70
2018-03-25T08:49:05.166Z,7.70
2018-03-25T08:51:34.213Z,7.80
2018-03-25T08:54:02.465Z,7.70
2018-03-25T08:56:30.760Z,7.80
2018-03-25T08:58:59.003Z,7.80
2018-03-25T09:01:27.260Z,7.80
2018-03-25T09:03:56.317Z,7.90
2018-03-25T09:06:24.661Z,7.80
2018-03-25T09:08:52.933Z,7.90
2018-03-25T09:11:21.185Z,7.90
2018-03-25T09:13:50.188Z,7.90
2018-03-25T09:16:19.201Z,7.90
2018-03-25T09:18:47.432Z,7.90
2018-03-25T09:21:15.675Z,8.00
2018-03-25T09:23:43.946Z,8.00
2018-03-25T09:26:12.179Z,8.00
2018-03-25T09:28:41.196Z,8.10
2018-03-25T09:31:09.440Z,8.10
2018-03-25T09:33:37.708Z,8.20
2018-03-25T09:36:05.975Z,8.20
2018-03-25T09:38:34.279Z,8.20
2018-03-25T09:41:03.299Z,8.30
2018-03-25T09:43:31.540Z,8.30
2018-03-25T09:45:59.761Z,8.30
2018-03-25T09:48:28.768Z,8.40
2018-03-25T09:50:57.017Z,8.40
2018-03-25T09:53:25.485Z,8.50
2018-03-25T09:55:53.692Z,8.50
2018-03-25T09:58:21.935Z,8.50
2018-03-25T10:03:54.104Z,8.60
2018-03-25T10:06:22.343Z,8.60
2018-03-25T10:08:50.614Z,8.70
2018-03-25T10:11:18.858Z,8.70
2018-03-25T10:13:47.863Z,8.80
2018-03-25T10:16:16.136Z,8.80
2018-03-25T10:18:44.379Z,8.90
2018-03-25T10:21:12.616Z,8.90
2018-03-25T10:23:40.880Z,8.90
2018-03-25T10:26:09.126Z,9.00
2018-03-25T10:28:38.152Z,9.10
2018-03-25T10:31:06.393Z,9.00
2018-03-25T10:33:35.420Z,9.10
2018-03-25T10:36:03.658Z,9.00
2018-03-25T10:38:32.689Z,9.20
2018-03-25T10:41:00.897Z,9.10
2018-03-25T10:43:29.133Z,9.20
2018-03-25T10:45:57.378Z,9.20
2018-03-25T10:48:26.428Z,9.30
2018-03-25T10:50:54.661Z,9.30
2018-03-25T10:53:23.697Z,9.40
2018-03-25T10:55:51.925Z,9.30
2018-03-25T10:58:20.942Z,9.40
2018-03-25T11:00:49.188Z,9.40
2018-03-25T11:03:17.438Z,9.40
2018-03-25T11:05:45.669Z,9.50
2018-03-25T11:08:14.673Z,9.60
2018-03-25T11:10:42.905Z,9.50
2018-03-25T11:13:11.930Z,9.60
2018-03-25T11:15:40.183Z,9.60
2018-03-25T11:18:09.169Z,9.60
2018-03-25T11:20:37.422Z,9.60
2018-03-25T11:23:05.667Z,9.70
2018-03-25T11:25:33.908Z,9.70
2018-03-25T11:28:02.975Z,9.80
2018-03-25T11:30:31.230Z,9.80
2018-03-25T11:32:59.464Z,9.90
2018-03-25T11:35:28.445Z,10.00
2018-03-25T11:37:57.458Z,10.00
2018-03-25T11:40:25.712Z,10.00
2018-03-25T11:42:54.750Z,10.10
2018-03-25T11:45:24.565Z,10.10
2018-03-25T11:47:52.830Z,10.10
2018-03-25T11:50:21.058Z,10.10
2018-03-25T11:52:49.316Z,10.20
2018-03-25T11:55:17.722Z,10.20
2018-03-25T11:57:45.925Z,10.20
2018-03-25T12:00:14.205Z,10.30
2018-03-25T12:02:42.438Z,10.30
2018-03-25T12:05:10.710Z,10.30
2018-03-25T12:07:38.994Z,10.40
2018-03-25T12:10:07.240Z,10.40
2018-03-25T12:12:35.597Z,10.40
2018-03-25T12:15:03.866Z,10.40
2018-03-25T12:17:32.117Z,10.50
2018-03-25T12:20:01.183Z,10.50
2018-03-25T12:22:29.413Z,10.40
2018-03-25T12:24:57.801Z,10.50
2018-03-25T12:27:26.354Z,10.50
2018-03-25T12:29:54.629Z,10.60
2018-03-25T12:32:23.774Z,10.60
2018-03-25T12:34:52.004Z,10.60
2018-03-25T12:37:21.073Z,10.70
2018-03-25T12:39:49.358Z,10.70
2018-03-25T12:42:17.670Z,10.70
2018-03-25T12:44:45.964Z,10.80
2018-03-25T12:47:14.279Z,10.80
2018-03-25T12:49:42.538Z,10.80
2018-03-25T12:52:10.848Z,10.80
2018-03-25T12:54:39.177Z,10.90
2018-03-25T12:57:07.577Z,10.90
2018-03-25T12:59:35.949Z,10.90
2018-03-25T13:02:04.277Z,11.00
2018-03-25T13:04:33.306Z,11.00
2018-03-25T13:07:01.581Z,11.00
2018-03-25T13:09:29.817Z,11.00
2018-03-25T13:11:58.883Z,11.00
2018-03-25T13:14:27.171Z,11.00
2018-03-25T13:16:55.410Z,11.00
2018-03-25T13:19:23.675Z,11.10
2018-03-25T13:21:51.930Z,11.10
2018-03-25T13:24:20.969Z,11.20
2018-03-25T13:26:49.235Z,11.10
2018-03-25T13:29:17.478Z,11.20
2018-03-25T13:31:45.727Z,11.20
2018-03-25T13:34:14.082Z,11.30
2018-03-25T13:36:42.319Z,11.30
2018-03-25T13:39:10.586Z,11.30
2018-03-25T13:41:39.570Z,11.30
2018-03-25T13:44:08.582Z,11.30
2018-03-25T13:46:36.829Z,11.30
2018-03-25T13:49:05.094Z,11.40
2018-03-25T13:51:33.334Z,11.40
2018-03-25T13:54:01.661Z,11.40
2018-03-25T13:56:29.839Z,11.50
2018-03-25T13:58:58.856Z,11.60
2018-03-25T14:01:27.090Z,11.50
2018-03-25T14:03:55.359Z,11.60
2018-03-25T14:06:23.658Z,11.70
2018-03-25T14:08:52.646Z,11.70
2018-03-25T14:11:20.902Z,11.70
2018-03-25T14:13:49.130Z,11.70
2018-03-25T14:16:17.391Z,11.70
2018-03-25T14:18:46.390Z,11.70
2018-03-25T14:21:15.406Z,11.80
2018-03-25T14:23:43.663Z,11.70
2018-03-25T14:26:12.671Z,11.80
2018-03-25T14:28:40.917Z,11.80
2018-03-25T14:31:09.932Z,11.90
2018-03-25T14:33:38.957Z,11.90
2018-03-25T14:36:07.236Z,11.90
2018-03-25T14:38:35.493Z,11.90
2018-03-25T14:41:03.747Z,11.90
2018-03-25T14:43:32.774Z,12.00
2018-03-25T14:46:01.027Z,11.90
2018-03-25T14:48:29.267Z,12.00
2018-03-25T14:50:57.532Z,12.00
2018-03-25T14:53:25.759Z,12.00
2018-03-25T14:55:54.017Z,12.00
2018-03-25T14:58:23.070Z,12.10
2018-03-25T15:00:51.360Z,12.10
2018-03-25T15:03:19.586Z,12.10
2018-03-25T15:05:47.871Z,12.10
2018-03-25T15:08:16.118Z,12.10
2018-03-25T15:10:45.137Z,12.20
2018-03-25T15:13:13.413Z,12.10
2018-03-25T15:15:41.677Z,12.20
2018-03-25T15:18:09.979Z,12.20
2018-03-25T15:20:38.288Z,12.20
2018-03-25T15:23:06.538Z,12.30
2018-03-25T15:25:34.837Z,12.30
2018-03-25T15:28:03.445Z,12.30
2018-03-25T15:30:31.812Z,12.30
2018-03-25T15:33:00.058Z,12.30
2018-03-25T15:35:28.300Z,12.30
2018-03-25T15:37:57.339Z,12.40
2018-03-25T15:40:25.579Z,12.30
2018-03-25T15:42:53.834Z,12.40
2018-03-25T15:45:22.850Z,12.40
2018-03-25T15:47:51.154Z,12.40
2018-03-25T15:50:19.450Z,12.50
2018-03-25T15:52:47.682Z,12.50
2018-03-25T15:55:15.933Z,12.60
2018-03-25T15:57:44.974Z,12.60
2018-03-25T16:00:13.223Z,12.60
2018-03-25T16:02:41.463Z,12.60
2018-03-25T16:05:09.696Z,12.60
2018-03-25T16:07:37.960Z,12.70
2018-03-25T16:10:06.186Z,12.70
2018-03-25T16:12:34.443Z,12.70
2018-03-25T16:15:02.705Z,12.80
2018-03-25T16:17:30.973Z,12.80
2018-03-25T16:19:59.214Z,12.70
2018-03-25T16:22:28.236Z,12.70
2018-03-25T16:24:56.495Z,12.70
2018-03-25T16:27:25.544Z,12.60
2018-03-25T16:29:53.761Z,12.60
2018-03-25T16:32:22.803Z,12.60
2018-03-25T16:34:51.060Z,12.60
2018-03-25T16:37:19.299Z,12.60
2018-03-25T16:39:48.427Z,12.50
2018-03-25T16:42:16.667Z,12.50
2018-03-25T16:44:44.913Z,12.50
2018-03-25T16:47:13.174Z,12.50
2018-03-25T16:49:41.433Z,12.50
2018-03-25T16:52:09.657Z,12.40
2018-03-25T16:54:37.934Z,12.40
2018-03-25T16:57:06.176Z,12.40
2018-03-25T16:59:34.415Z,12.40
2018-03-25T17:02:03.430Z,12.30
2018-03-25T17:04:31.686Z,12.30
2018-03-25T17:07:00.727Z,12.20
2018-03-25T17:09:28.986Z,12.20
2018-03-25T17:11:57.245Z,12.20
2018-03-25T17:14:25.516Z,12.20
2018-03-25T17:16:54.512Z,12.10
2018-03-25T17:19:23.523Z,12.00
2018-03-25T17:21:51.825Z,12.00
2018-03-25T17:24:20.008Z,12.00
2018-03-25T17:26:48.241Z,12.00
2018-03-25T17:29:16.508Z,11.90
2018-03-25T17:31:45.553Z,11.90
2018-03-25T17:34:13.795Z,11.80
2018-03-25T17:36:42.292Z,11.90
2018-03-25T17:39:11.049Z,11.80
2018-03-25T17:41:39.475Z,11.80
2018-03-25T17:44:07.955Z,11.80
2018-03-25T17:46:36.257Z,11.80
2018-03-25T17:49:04.506Z,11.80
2018-03-25T17:51:32.761Z,11.80
2018-03-25T17:54:01.003Z,11.80
2018-03-25T17:56:30.022Z,11.70
2018-03-25T17:58:58.266Z,11.70
2018-03-25T18:01:27.314Z,11.70
2018-03-25T18:03:55.517Z,11.60
2018-03-25T18:06:23.808Z,11.60
2018-03-25T18:08:52.019Z,11.60
2018-03-25T18:11:20.287Z,11.70
2018-03-25T18:13:48.549Z,11.80
2018-03-25T18:16:17.544Z,11.80
2018-03-25T18:18:46.571Z,11.90
2018-03-25T18:21:14.803Z,11.80
2018-03-25T18:23:43.802Z,11.90
2018-03-25T18:26:12.814Z,11.80
2018-03-25T18:28:41.070Z,11.80
2018-03-25T18:31:10.094Z,11.90
2018-03-25T18:33:38.341Z,11.80
2018-03-25T18:36:07.367Z,11.70
2018-03-25T18:38:35.602Z,11.70
2018-03-25T18:41:04.617Z,11.70
2018-03-25T18:43:33.657Z,11.70
2018-03-25T18:46:01.892Z,11.60
2018-03-25T18:48:30.110Z,11.70
2018-03-25T18:50:58.376Z,11.70
2018-03-25T18:53:26.609Z,11.60
2018-03-25T18:55:55.599Z,11.60
2018-03-25T18:58:24.632Z,11.60
2018-03-25T19:00:52.850Z,11.60
2018-03-25T19:03:21.104Z,11.60
2018-03-25T19:05:49.344Z,11.70
2018-03-25T19:08:17.618Z,11.70
2018-03-25T19:10:45.872Z,11.70
2018-03-25T19:13:14.885Z,11.60
2018-03-25T19:15:43.144Z,11.50
2018-03-25T19:18:11.393Z,11.60
2018-03-25T19:20:39.650Z,11.60
2018-03-25T19:23:07.882Z,11.60
2018-03-25T19:25:36.890Z,11.60
2018-03-25T19:28:05.539Z,11.60
2018-03-25T19:30:33.926Z,11.70
2018-03-25T19:33:02.150Z,11.60
2018-03-25T19:35:30.409Z,11.60
2018-03-25T19:37:59.439Z,11.60
2018-03-25T19:40:27.666Z,11.50
2018-03-25T19:42:55.938Z,11.60
2018-03-25T19:45:24.946Z,11.60
2018-03-25T19:47:53.187Z,11.50
2018-03-25T19:50:21.455Z,11.60
2018-03-25T19:52:49.702Z,11.60
2018-03-25T19:55:17.950Z,11.50
2018-03-25T19:57:46.210Z,11.60
2018-03-25T20:00:15.243Z,11.60
2018-03-25T20:02:43.570Z,11.50
2018-03-25T20:05:11.767Z,11.50
2018-03-25T20:07:39.994Z,11.50
2018-03-25T20:10:08.245Z,11.50
2018-03-25T20:12:36.495Z,11.50
2018-03-25T20:15:04.769Z,11.50
2018-03-25T20:17:33.005Z,11.50
2018-03-25T20:20:01.259Z,11.50
2018-03-25T20:22:29.512Z,11.40
2018-03-25T20:24:57.774Z,11.40
2018-03-25T20:27:26.053Z,11.50
2018-03-25T20:29:54.354Z,11.40
2018-03-25T20:32:22.581Z,11.40
2018-03-25T20:34:51.592Z,11.40
2018-03-25T20:37:20.605Z,11.30
2018-03-25T20:39:48.872Z,11.30
2018-03-25T20:42:17.138Z,11.30
2018-03-25T20:44:46.141Z,11.30
2018-03-25T20:47:14.367Z,11.30
2018-03-25T20:49:42.630Z,11.30
2018-03-25T20:52:10.854Z,11.20
2018-03-25T20:54:39.875Z,11.20
2018-03-25T20:57:08.111Z,11.10
2018-03-25T20:59:36.362Z,11.20
2018-03-25T21:02:04.605Z,11.20
2018-03-25T21:04:32.855Z,11.20
2018-03-25T21:07:01.881Z,11.10
2018-03-25T21:09:30.109Z,11.10
2018-03-25T21:11:59.153Z,11.20
2018-03-25T21:14:27.395Z,11.10
2018-03-25T21:16:56.406Z,11.20
2018-03-25T21:19:24.663Z,11.20
2018-03-25T21:21:53.648Z,11.20
2018-03-25T21:24:22.680Z,11.20
2018-03-25T21:26:50.914Z,11.10
2018-03-25T21:29:19.176Z,11.20
2018-03-25T21:31:47.420Z,11.20
2018-03-25T21:34:15.653Z,11.10
2018-03-25T21:36:44.679Z,11.00
2018-03-25T21:39:12.931Z,11.00
2018-03-25T21:41:41.928Z,11.00
2018-03-25T21:44:10.915Z,11.00
2018-03-25T21:46:39.938Z,11.00
2018-03-25T21:49:08.162Z,11.00
2018-03-25T21:51:36.454Z,11.00
2018-03-25T21:54:04.647Z,10.90
2018-03-25T21:56:32.882Z,10.90
2018-03-25T21:59:01.186Z,10.90
2018-03-25T22:01:29.370Z,10.90
2018-03-25T22:03:58.402Z,10.90
2018-03-25T22:06:26.643Z,10.90
2018-03-25T22:08:55.671Z,11.00
2018-03-25T22:11:23.923Z,10.90
2018-03-25T22:13:52.152Z,10.90
2018-03-25T22:16:20.414Z,10.90
2018-03-25T22:18:59.604Z,10.90
2018-03-25T22:21:27.874Z,10.90
2018-03-25T22:23:56.874Z,10.70
2018-03-25T22:26:25.154Z,10.60
2018-03-25T22:28:53.420Z,10.70
2018-03-25T22:31:22.411Z,10.80
2018-03-25T22:33:51.406Z,10.80
2018-03-25T22:36:20.421Z,10.80
2018-03-25T22:38:48.660Z,10.80
2018-03-25T22:41:16.891Z,10.90
2018-03-25T22:43:45.148Z,10.90
2018-03-25T22:46:13.385Z,10.90
2018-03-25T22:48:41.632Z,10.90
2018-03-25T22:51:09.858Z,10.90
2018-03-25T22:53:38.105Z,10.90
2018-03-25T22:56:06.355Z,10.90
2018-03-25T22:58:34.605Z,10.90
2018-03-25T23:01:02.858Z,10.90
2018-03-25T23:03:31.862Z,10.80
2018-03-25T23:06:00.112Z,10.80
2018-03-25T23:08:28.374Z,10.90
2018-03-25T23:10:56.606Z,10.90
2018-03-25T23:13:24.842Z,10.80
2018-03-25T23:15:53.859Z,10.80
2018-03-25T23:18:22.097Z,10.70
2018-03-25T23:20:50.350Z,10.80
2018-03-25T23:23:19.362Z,10.80
2018-03-25T23:25:47.593Z,10.80
2018-03-25T23:28:15.863Z,10.80
2018-03-25T23:30:44.091Z,10.80
2018-03-25T23:33:12.326Z,10.80
2018-03-25T23:35:40.601Z,10.80
2018-03-25T23:38:08.847Z,10.80
2018-03-25T23:40:37.858Z,10.80
2018-03-25T23:43:06.083Z,10.80
2018-03-25T23:45:34.361Z,10.80
2018-03-25T23:48:02.596Z,10.80
2018-03-25T23:50:30.824Z,10.80
2018-03-25T23:52:59.069Z,10.80
2018-03-25T23:55:27.310Z,10.70
2018-03-25T23:57:55.571Z,10.70
